createdAt,value
2022-07-30T00:01:38.104Z,100477.89
2022-07-30T00:04:07.106Z,100476.44
2022-07-30T00:06:38.087Z,100473.02
2022-07-30T00:09:07.091Z,100472.13
2022-07-30T00:11:36.066Z,100468.38
2022-07-30T00:14:05.060Z,100466.66
2022-07-30T00:16:34.012Z,100464.90
2022-07-30T00:19:03.771Z,100463.95
2022-07-30T00:21:38.735Z,100462.96
2022-07-30T00:24:09.437Z,100462.65
2022-07-30T00:26:38.821Z,100462.44
2022-07-30T00:29:08.997Z,100466.50
2022-07-30T00:31:38.066Z,100463.53
2022-07-30T00:34:07.268Z,100460.80
2022-07-30T00:36:36.396Z,100455.77
2022-07-30T00:39:08.147Z,100449.98
2022-07-30T00:41:57.682Z,100444.94
2022-07-30T00:44:28.967Z,100440.06
2022-07-30T00:46:58.681Z,100435.66
2022-07-30T00:49:29.126Z,100435.78
2022-07-30T00:51:58.489Z,100435.69
2022-07-30T00:54:27.511Z,100429.50
2022-07-30T00:56:56.541Z,100427.33
2022-07-30T00:59:28.273Z,100430.77
2022-07-30T01:01:59.447Z,100425.98
2022-07-30T01:04:29.202Z,100427.04
2022-07-30T01:06:58.632Z,100427.52
2022-07-30T01:09:28.039Z,100423.22
2022-07-30T01:11:57.170Z,100416.38
2022-07-30T01:14:26.074Z,100414.17
2022-07-30T01:16:55.305Z,100411.91
2022-07-30T01:19:50.313Z,100413.37
2022-07-30T01:22:31.567Z,100415.77
2022-07-30T01:25:52.012Z,100416.90
2022-07-30T01:28:29.155Z,100411.66
2022-07-30T01:31:00.152Z,100408.87
2022-07-30T01:33:31.472Z,100404.05
2022-07-30T01:36:03.388Z,100396.08
2022-07-30T01:38:35.590Z,100392.56
2022-07-30T01:41:06.762Z,100387.65
2022-07-30T01:43:36.891Z,100390.27
2022-07-30T01:46:08.625Z,100391.72
2022-07-30T01:48:42.863Z,100389.84
2022-07-30T01:51:17.003Z,100390.23
2022-07-30T01:53:50.496Z,100392.58
2022-07-30T01:56:24.532Z,100390.84
2022-07-30T01:58:57.132Z,100391.56
2022-07-30T02:01:30.851Z,100390.85
2022-07-30T02:04:03.898Z,100392.14
2022-07-30T02:06:46.458Z,100392.67
2022-07-30T02:09:28.791Z,100391.81
2022-07-30T02:12:18.051Z,100396.89
2022-07-30T02:15:11.490Z,100396.92
2022-07-30T02:18:11.040Z,100396.81
2022-07-30T02:20:45.776Z,100399.14
2022-07-30T02:23:19.605Z,100401.73
2022-07-30T02:25:51.970Z,100398.20
2022-07-30T02:28:25.257Z,100395.37
2022-07-30T02:30:59.336Z,100395.13
2022-07-30T02:33:36.120Z,100391.61
2022-07-30T02:36:12.589Z,100389.48
2022-07-30T02:38:43.040Z,100389.94
2022-07-30T02:41:15.733Z,100391.40
2022-07-30T02:43:46.580Z,100389.20
2022-07-30T02:46:18.489Z,100388.98
2022-07-30T02:49:11.214Z,100386.38
2022-07-30T02:51:43.311Z,100378.84
2022-07-30T02:54:14.584Z,100374.20
2022-07-30T02:56:48.109Z,100374.42
2022-07-30T02:59:20.273Z,100371.57
2022-07-30T03:01:50.496Z,100370.83
2022-07-30T03:04:22.147Z,100364.29
2022-07-30T03:06:53.116Z,100363.33
2022-07-30T03:09:22.805Z,100361.93
2022-07-30T03:11:55.416Z,100359.09
2022-07-30T03:14:24.503Z,100362.59
2022-07-30T03:16:59.126Z,100357.67
2022-07-30T03:19:33.131Z,100357.52
2022-07-30T03:22:04.796Z,100356.61
2022-07-30T03:24:35.389Z,100358.39
2022-07-30T03:27:07.080Z,100345.77
2022-07-30T03:29:39.733Z,100347.66
2022-07-30T03:32:13.713Z,100347.98
2022-07-30T03:34:45.559Z,100346.31
2022-07-30T03:37:16.788Z,100342.65
2022-07-30T03:39:47.976Z,100341.96
2022-07-30T03:42:17.329Z,100339.05
2022-07-30T03:44:47.460Z,100338.45
2022-07-30T03:47:17.755Z,100338.90
2022-07-30T03:49:49.376Z,100343.45
2022-07-30T03:52:21.290Z,100344.98
2022-07-30T03:54:51.935Z,100343.64
2022-07-30T03:57:44.150Z,100337.89
2022-07-30T04:00:16.056Z,100336.48
2022-07-30T04:02:55.617Z,100336.45
2022-07-30T04:05:43.579Z,100338.11
2022-07-30T04:08:13.769Z,100334.63
2022-07-30T04:10:43.158Z,100334.55
2022-07-30T04:13:30.830Z,100337.27
2022-07-30T04:16:40.511Z,100341.16
2022-07-30T04:19:28.632Z,100344.79
2022-07-30T04:22:01.005Z,100344.40
2022-07-30T04:24:31.919Z,100348.05
2022-07-30T04:27:03.127Z,100350.48
2022-07-30T04:29:32.651Z,100348.87
2022-07-30T04:32:05.426Z,100343.45
2022-07-30T04:34:56.653Z,100339.48
2022-07-30T04:37:52.320Z,100336.81
2022-07-30T04:40:26.942Z,100338.31
2022-07-30T04:42:58.289Z,100336.48
2022-07-30T04:45:27.337Z,100339.19
2022-07-30T04:48:01.056Z,100337.49
2022-07-30T04:50:47.291Z,100340.64
2022-07-30T04:53:21.912Z,100338.66
2022-07-30T04:55:57.459Z,100340.29
2022-07-30T04:58:32.391Z,100339.09
2022-07-30T05:01:03.128Z,100335.52
2022-07-30T05:03:35.220Z,100335.83
2022-07-30T05:06:06.482Z,100333.77
2022-07-30T05:08:40.523Z,100328.48
2022-07-30T05:11:15.152Z,100327.11
2022-07-30T05:13:48.989Z,100326.41
2022-07-30T05:16:21.342Z,100326.22
2022-07-30T05:18:51.084Z,100326.13
2022-07-30T05:21:29.599Z,100326.02
2022-07-30T05:24:07.263Z,100331.05
2022-07-30T05:26:42.704Z,100334.40
2022-07-30T05:29:19.571Z,100332.02
2022-07-30T05:32:15.564Z,100327.38
2022-07-30T05:34:49.878Z,100330.90
2022-07-30T05:37:23.691Z,100331.95
2022-07-30T05:39:58.826Z,100331.98
2022-07-30T05:42:51.298Z,100330.69
2022-07-30T05:45:24.884Z,100322.45
2022-07-30T05:47:56.426Z,100323.38
2022-07-30T05:50:25.581Z,100320.52
2022-07-30T05:52:56.203Z,100323.48
2022-07-30T05:56:00.450Z,100329.50
2022-07-30T05:58:48.070Z,100341.09
2022-07-30T06:01:21.906Z,100340.89
2022-07-30T06:03:51.958Z,100342.77
2022-07-30T06:06:45.056Z,100345.44
2022-07-30T06:09:14.489Z,100341.89
2022-07-30T06:11:43.488Z,100343.70
2022-07-30T06:14:12.352Z,100339.48
2022-07-30T06:16:42.970Z,100334.77
2022-07-30T06:19:19.451Z,100336.27
2022-07-30T06:22:01.492Z,100333.41
2022-07-30T06:24:37.417Z,100334.14
2022-07-30T06:27:11.798Z,100338.88
2022-07-30T06:29:42.276Z,100340.91
2022-07-30T06:32:11.648Z,100343.85
2022-07-30T06:34:40.644Z,100347.09
2022-07-30T06:37:09.773Z,100342.83
2022-07-30T06:39:56.231Z,100340.91
2022-07-30T06:42:47.297Z,100333.91
2022-07-30T06:45:36.088Z,100333.77
2022-07-30T06:48:31.353Z,100329.95
2022-07-30T06:51:01.314Z,100330.02
2022-07-30T06:53:30.695Z,100325.30
2022-07-30T06:56:35.012Z,100325.89
2022-07-30T06:59:06.527Z,100326.02
2022-07-30T07:01:57.358Z,100326.30
2022-07-30T07:04:27.660Z,100326.73
2022-07-30T07:07:12.197Z,100328.45
2022-07-30T07:09:44.855Z,100327.63
2022-07-30T07:12:51.346Z,100328.05
2022-07-30T07:15:36.393Z,100329.36
2022-07-30T07:18:08.572Z,100324.22
2022-07-30T07:20:40.311Z,100324.41
2022-07-30T07:23:12.469Z,100315.89
2022-07-30T07:25:42.492Z,100311.93
2022-07-30T07:28:13.590Z,100311.04
2022-07-30T07:30:45.451Z,100314.20
2022-07-30T07:33:15.570Z,100310.94
2022-07-30T07:35:49.607Z,100303.60
2022-07-30T07:38:31.672Z,100304.38
2022-07-30T07:41:01.007Z,100298.88
2022-07-30T07:43:30.502Z,100298.02
2022-07-30T07:46:00.770Z,100294.02
2022-07-30T07:48:35.833Z,100292.43
2022-07-30T07:51:46.852Z,100284.48
2022-07-30T07:54:22.670Z,100281.56
2022-07-30T07:56:53.425Z,100279.09
2022-07-30T07:59:36.169Z,100282.20
2022-07-30T08:02:10.616Z,100279.84
2022-07-30T08:04:52.199Z,100282.23
2022-07-30T08:07:46.072Z,100283.17
2022-07-30T08:10:33.864Z,100280.75
2022-07-30T08:13:49.243Z,100275.77
2022-07-30T08:16:29.336Z,100279.15
2022-07-30T08:19:17.046Z,100278.02
2022-07-30T08:21:52.724Z,100274.44
2022-07-30T08:24:24.028Z,100273.36
2022-07-30T08:26:52.923Z,100277.30
2022-07-30T08:29:22.272Z,100278.77
2022-07-30T08:31:51.498Z,100278.48
2022-07-30T08:34:25.753Z,100278.59
2022-07-30T08:36:56.238Z,100279.23
2022-07-30T08:39:27.669Z,100278.89
2022-07-30T08:41:57.935Z,100276.09
2022-07-30T08:44:29.383Z,100273.40
2022-07-30T08:47:02.020Z,100266.00
2022-07-30T08:49:51.607Z,100266.27
2022-07-30T08:52:24.833Z,100263.35
2022-07-30T08:55:02.497Z,100267.59
2022-07-30T08:57:34.573Z,100272.27
2022-07-30T09:00:10.559Z,100273.54
2022-07-30T09:02:39.485Z,100274.96
2022-07-30T09:05:12.061Z,100274.96
2022-07-30T09:07:41.565Z,100275.65
2022-07-30T09:10:14.983Z,100275.96
2022-07-30T09:12:48.762Z,100276.56
2022-07-30T09:15:21.634Z,100275.52
2022-07-30T09:17:57.226Z,100273.62
2022-07-30T09:20:36.067Z,100278.25
2022-07-30T09:23:08.450Z,100280.11
2022-07-30T09:26:01.713Z,100281.13
2022-07-30T09:28:46.055Z,100274.23
2022-07-30T09:32:00.984Z,100277.38
2022-07-30T09:34:50.445Z,100279.97
2022-07-30T09:38:05.988Z,100275.08
2022-07-30T09:40:57.505Z,100273.16
2022-07-30T09:43:43.757Z,100274.71
2022-07-30T09:46:17.889Z,100279.15
2022-07-30T09:48:47.084Z,100281.64
2022-07-30T09:51:16.186Z,100283.59
2022-07-30T09:54:01.372Z,100283.86
2022-07-30T09:57:06.119Z,100278.33
2022-07-30T09:59:54.042Z,100280.58
2022-07-30T10:02:33.345Z,100278.31
2022-07-30T10:05:35.496Z,100274.22
2022-07-30T10:08:16.725Z,100272.48
2022-07-30T10:10:50.980Z,100272.92
2022-07-30T10:13:21.647Z,100273.36
2022-07-30T10:15:51.509Z,100273.23
2022-07-30T10:18:23.312Z,100268.20
2022-07-30T10:21:26.681Z,100272.52
2022-07-30T10:24:27.742Z,100272.90
2022-07-30T10:27:20.855Z,100273.73
2022-07-30T10:30:27.634Z,100273.56
2022-07-30T10:32:59.956Z,100278.46
2022-07-30T10:35:31.472Z,100274.58
2022-07-30T10:38:15.016Z,100273.25
2022-07-30T10:41:15.317Z,100272.45
2022-07-30T10:44:52.199Z,100268.96
2022-07-30T10:47:29.805Z,100266.84
2022-07-30T10:50:22.376Z,100263.75
2022-07-30T10:52:58.624Z,100260.97
2022-07-30T10:55:43.220Z,100260.41
2022-07-30T10:58:17.997Z,100259.36
2022-07-30T11:01:18.015Z,100257.52
2022-07-30T11:04:29.534Z,100255.85
2022-07-30T11:07:30.269Z,100254.45
2022-07-30T11:10:09.384Z,100248.95
2022-07-30T11:12:57.940Z,100245.61
2022-07-30T11:15:59.945Z,100246.13
2022-07-30T11:18:29.444Z,100249.24
2022-07-30T11:21:15.134Z,100248.05
2022-07-30T11:23:54.907Z,100245.08
2022-07-30T11:26:46.772Z,100251.94
2022-07-30T11:29:50.881Z,100250.47
2022-07-30T11:32:30.149Z,100250.89
2022-07-30T11:35:34.674Z,100254.17
2022-07-30T11:38:07.433Z,100255.64
2022-07-30T11:41:05.770Z,100250.54
2022-07-30T11:43:36.978Z,100252.30
2022-07-30T11:46:29.939Z,100253.38
2022-07-30T11:49:08.547Z,100255.29
2022-07-30T11:51:43.889Z,100256.46
2022-07-30T11:54:16.010Z,100255.39
2022-07-30T11:57:04.421Z,100256.12
2022-07-30T11:59:56.813Z,100256.42
2022-07-30T12:02:29.472Z,100256.64
2022-07-30T12:04:58.881Z,100263.44
2022-07-30T12:07:29.802Z,100263.73
2022-07-30T12:10:25.739Z,100262.16
2022-07-30T12:13:45.802Z,100265.59
2022-07-30T12:16:18.126Z,100257.76
2022-07-30T12:18:47.900Z,100255.38
2022-07-30T12:21:19.126Z,100253.08
2022-07-30T12:23:59.567Z,100253.61
2022-07-30T12:26:34.556Z,100253.21
2022-07-30T12:29:15.352Z,100252.84
2022-07-30T12:31:46.341Z,100248.20
2022-07-30T12:34:26.840Z,100246.55
2022-07-30T12:36:55.903Z,100243.09
2022-07-30T12:39:28.721Z,100235.97
2022-07-30T12:42:03.716Z,100229.87
2022-07-30T12:44:42.511Z,100229.05
2022-07-30T12:47:27.115Z,100230.04
2022-07-30T12:49:59.528Z,100233.30
2022-07-30T12:52:34.560Z,100236.36
2022-07-30T12:55:12.120Z,100232.80
2022-07-30T12:58:16.168Z,100232.83
2022-07-30T13:01:25.181Z,100231.67
2022-07-30T13:05:10.812Z,100231.41
2022-07-30T13:08:11.488Z,100235.59
2022-07-30T13:11:15.138Z,100235.73
2022-07-30T13:14:28.684Z,100235.83
2022-07-30T13:17:28.330Z,100234.10
2022-07-30T13:20:22.427Z,100232.45
2022-07-30T13:22:56.813Z,100227.64
2022-07-30T13:25:38.884Z,100224.52
2022-07-30T13:28:09.889Z,100222.83
2022-07-30T13:30:42.048Z,100215.68
2022-07-30T13:33:11.629Z,100207.53
2022-07-30T13:35:44.569Z,100203.34
2022-07-30T13:38:17.280Z,100208.35
2022-07-30T13:40:55.353Z,100213.06
2022-07-30T13:43:26.933Z,100219.55
2022-07-30T13:45:59.970Z,100217.20
2022-07-30T13:48:34.225Z,100214.80
2022-07-30T13:51:05.773Z,100212.17
2022-07-30T13:53:36.015Z,100211.16
2022-07-30T13:56:06.221Z,100207.12
2022-07-30T13:58:47.060Z,100204.57
2022-07-30T14:01:18.095Z,100203.80
2022-07-30T14:03:51.153Z,100205.48
2022-07-30T14:06:20.425Z,100205.92
2022-07-30T14:08:49.547Z,100203.84
2022-07-30T14:11:18.775Z,100204.31
2022-07-30T14:13:47.888Z,100206.73
2022-07-30T14:16:43.466Z,100207.91
2022-07-30T14:19:07.095Z,100206.20
2022-07-30T14:21:39.002Z,100202.21
2022-07-30T14:24:12.285Z,100205.23
2022-07-30T14:26:41.982Z,100205.55
2022-07-30T14:29:13.792Z,100202.79
2022-07-30T14:31:44.184Z,100200.23
2022-07-30T14:34:13.814Z,100196.35
2022-07-30T14:36:43.989Z,100195.89
2022-07-30T14:39:13.073Z,100194.83
2022-07-30T14:41:48.009Z,100193.10
2022-07-30T14:44:21.936Z,100196.89
2022-07-30T14:46:52.040Z,100192.55
2022-07-30T14:49:47.825Z,100189.05
2022-07-30T14:52:37.779Z,100187.52
2022-07-30T14:55:10.918Z,100185.92
2022-07-30T14:57:46.255Z,100187.34
2022-07-30T15:00:21.387Z,100180.70
2022-07-30T15:02:58.831Z,100178.47
2022-07-30T15:05:33.302Z,100180.36
2022-07-30T15:08:02.689Z,100179.09
2022-07-30T15:10:32.205Z,100174.69
2022-07-30T15:13:03.125Z,100175.20
2022-07-30T15:15:36.889Z,100175.70
2022-07-30T15:18:08.992Z,100175.05
2022-07-30T15:20:40.921Z,100176.18
2022-07-30T15:23:15.013Z,100176.36
2022-07-30T15:25:46.556Z,100175.46
2022-07-30T15:28:15.872Z,100175.21
2022-07-30T15:30:44.921Z,100177.78
2022-07-30T15:33:23.010Z,100177.15
2022-07-30T15:35:58.268Z,100178.93
2022-07-30T15:38:34.845Z,100176.85
2022-07-30T15:41:08.380Z,100181.05
2022-07-30T15:43:41.207Z,100182.95
2022-07-30T15:46:11.702Z,100186.16
2022-07-30T15:52:40.141Z,100177.08
2022-07-30T15:55:46.973Z,100178.73
2022-07-30T15:59:26.071Z,100174.95
2022-07-30T16:02:13.861Z,100173.52
2022-07-30T16:04:48.323Z,100174.55
2022-07-30T16:07:29.908Z,100175.73
2022-07-30T16:10:08.356Z,100179.27
2022-07-30T16:12:47.133Z,100178.89
2022-07-30T16:15:28.000Z,100175.63
2022-07-30T16:18:44.813Z,100168.74
2022-07-30T16:21:29.543Z,100167.38
2022-07-30T16:25:23.083Z,100169.23
2022-07-30T16:28:07.876Z,100166.29
2022-07-30T16:35:12.998Z,100163.48
2022-07-30T16:38:03.078Z,100167.80
2022-07-30T16:43:32.489Z,100163.23
2022-07-30T16:47:13.730Z,100165.52
2022-07-30T16:49:57.418Z,100173.02
2022-07-30T16:52:31.391Z,100174.54
2022-07-30T16:55:11.725Z,100174.61
2022-07-30T16:57:45.156Z,100181.94
2022-07-30T17:00:15.889Z,100179.99
2022-07-30T17:02:47.768Z,100181.99
2022-07-30T17:05:45.176Z,100179.23
2022-07-30T17:08:17.836Z,100179.73
2022-07-30T17:11:02.317Z,100180.50
2022-07-30T17:14:03.055Z,100181.44
2022-07-30T17:16:35.388Z,100181.70
2022-07-30T17:19:09.926Z,100184.23
2022-07-30T17:22:03.429Z,100178.35
2022-07-30T17:24:59.364Z,100179.44
2022-07-30T17:27:58.775Z,100183.11
2022-07-30T17:30:29.770Z,100186.48
2022-07-30T17:33:01.014Z,100183.60
2022-07-30T17:35:30.627Z,100181.23
2022-07-30T17:41:55.528Z,100184.41
2022-07-30T17:44:31.674Z,100185.65
2022-07-30T17:47:15.050Z,100188.61
2022-07-30T17:49:56.794Z,100185.57
2022-07-30T17:52:30.796Z,100181.56
2022-07-30T17:55:06.847Z,100180.61
2022-07-30T17:57:53.167Z,100181.20
2022-07-30T18:01:08.328Z,100180.67
2022-07-30T18:03:49.823Z,100176.31
2022-07-30T18:07:07.958Z,100179.23
2022-07-30T18:10:38.940Z,100181.73
2022-07-30T18:13:25.917Z,100181.19
2022-07-30T18:16:18.781Z,100184.13
2022-07-30T18:19:28.638Z,100186.06
2022-07-30T18:22:04.518Z,100183.83
2022-07-30T18:24:40.111Z,100187.44
2022-07-30T18:27:15.859Z,100183.35
2022-07-30T18:34:37.035Z,100190.01
2022-07-30T18:37:07.738Z,100191.41
2022-07-30T18:40:01.139Z,100192.95
2022-07-30T18:43:07.769Z,100193.70
2022-07-30T18:46:29.755Z,100196.74
2022-07-30T18:53:15.641Z,100192.83
2022-07-30T18:56:37.781Z,100195.69
2022-07-30T18:59:23.582Z,100195.23
2022-07-30T19:01:55.484Z,100199.73
2022-07-30T19:04:24.921Z,100198.45
2022-07-30T19:07:25.252Z,100200.05
2022-07-30T19:15:06.100Z,100203.12
2022-07-30T19:18:20.009Z,100205.80
2022-07-30T19:21:37.175Z,100213.36
2022-07-30T19:25:35.665Z,100215.40
2022-07-30T20:08:24.519Z,100231.67
2022-07-30T20:10:59.466Z,100231.92
2022-07-30T20:13:43.997Z,100235.02
2022-07-30T20:16:22.804Z,100228.48
2022-07-30T20:23:25.414Z,100225.35
2022-07-30T20:26:26.172Z,100226.06
2022-07-30T20:29:00.238Z,100228.88
2022-07-30T20:35:27.747Z,100228.02
2022-07-30T20:38:00.386Z,100230.55
2022-07-30T20:41:14.595Z,100228.50
2022-07-30T20:43:51.927Z,100225.79
2022-07-30T20:46:38.396Z,100228.54
2022-07-30T20:49:14.753Z,100224.61
2022-07-30T20:52:13.782Z,100224.02
2022-07-30T20:55:02.953Z,100224.60
2022-07-30T21:01:36.412Z,100223.92
2022-07-30T21:04:46.276Z,100227.81
2022-07-30T21:11:43.763Z,100222.45
2022-07-30T21:15:23.249Z,100230.51
2022-07-30T21:39:28.743Z,100235.23
2022-07-30T21:42:11.277Z,100233.48
2022-07-30T21:44:45.001Z,100237.75
2022-07-30T21:57:54.877Z,100238.98
2022-07-30T22:00:46.840Z,100239.48
2022-07-30T22:04:01.470Z,100243.20
2022-07-30T22:06:30.813Z,100237.27
2022-07-30T22:09:37.758Z,100237.95
2022-07-30T22:12:12.233Z,100233.43
2022-07-30T22:14:43.366Z,100231.14
2022-07-30T22:17:22.389Z,100229.54
2022-07-30T22:19:55.037Z,100225.35
2022-07-30T22:22:26.898Z,100224.70
2022-07-30T22:25:09.449Z,100224.45
2022-07-30T22:27:56.876Z,100217.35
2022-07-30T22:30:30.496Z,100219.08
2022-07-30T22:33:23.174Z,100221.09
2022-07-30T22:35:56.193Z,100218.89
2022-07-30T22:38:27.632Z,100218.77
2022-07-30T22:40:57.665Z,100217.41
2022-07-30T22:43:33.079Z,100215.41
2022-07-30T22:46:30.055Z,100215.49
2022-07-30T22:48:59.726Z,100209.31
2022-07-30T22:51:50.245Z,100206.02
2022-07-30T22:54:18.480Z,100205.71
2022-07-30T22:56:52.745Z,100207.27
2022-07-30T22:59:58.699Z,100208.70
2022-07-30T23:02:16.669Z,100203.92
2022-07-30T23:04:52.813Z,100206.05
2022-07-30T23:07:22.072Z,100206.45
2022-07-30T23:09:52.605Z,100199.81
2022-07-30T23:12:23.491Z,100199.28
2022-07-30T23:14:54.484Z,100196.65
2022-07-30T23:17:34.745Z,100195.30
2022-07-30T23:20:14.053Z,100192.94
2022-07-30T23:22:43.834Z,100191.10
2022-07-30T23:25:14.426Z,100191.52
2022-07-30T23:27:57.824Z,100194.09
2022-07-30T23:30:30.128Z,100196.19
2022-07-30T23:33:04.964Z,100194.27
2022-07-30T23:35:35.863Z,100194.83
2022-07-30T23:38:07.777Z,100193.77
2022-07-30T23:40:39.557Z,100194.02
2022-07-30T23:43:09.573Z,100191.95
2022-07-30T23:45:40.729Z,100191.10
2022-07-30T23:48:10.550Z,100191.63
2022-07-30T23:50:39.932Z,100194.17
2022-07-30T23:53:09.074Z,100191.23
2022-07-30T23:55:38.302Z,100191.70
2022-07-30T23:58:08.149Z,100190.60
